Nikiski, Alaska
Current Conditions -  °F | °C
As of 8:53 AM on Sunday 25 Jan 2015 (Local Time) from PAEN Reporting Station
Broken Clouds Broken Clouds  
Wind Chill: -7°   Ceiling: 3300
Heat Index:   Visibility: 10mi
Dew Point:   Wind: 9mph
Humidity: 73%   Direction: 90°E
Pressure: 29.67"   Gusts: NA
Location:  60.72°N, 151.38°W
Report Text: PAEN 251753Z 09008KT 10SM BKN033 M14/M18 A2967 RMK AO2 SLP052 T11391178 11128 21233 53027
Loading
Personal Weather Stations






























Interactive Weather Map New forecast layout! Learn more

10-Day Weather Forecast

Advertisements
Track Severe Weather on mobile